Aérodrome :
LOGIN :

S'inscrire | Disclaimer

   EN    FR    IT 

 










Légende :    VFR   VFR Marginal   IFR   IFR Intensif   IFR Très Intensif
Visi : 
Plafond : 
>= 8 km
>= 3000ft
5 à 8 km
1000 à 3000 ft
1500m à 5 km
500 à 1000 ft
800 à 1500m
200 à 500 ft
< 800m
< 200 ft
Symboles :   Orages  Brouillard  Fortes neiges  Fortes précipitations  Vent > 20 kt
SIGMETs :   Divers  Orages  Givrage  Turbulence  Onde Orograph.  Cendres Volcan.







- Altitude de l'aérodrome : 74 ft
- Code IATA : MRS
- Voir les cartes d'approche


LFML - Marseille / Marignane

DERNIER METAR :
  • 232300Z AUTO 12005KT CAVOK 22/17 Q1017 NOSIG

METARs EXPIRÉS :
  • 232230Z AUTO 10005KT 070V130 CAVOK 22/18 Q1017 NOSIG
  • 232200Z AUTO 12003KT 090V150 CAVOK 22/17 Q1017 NOSIG
  • 232130Z AUTO 09003KT 040V170 CAVOK 22/17 Q1017 NOSIG
  • 232100Z AUTO VRB02KT CAVOK 22/18 Q1017 NOSIG
  • 232030Z AUTO 13002KT CAVOK 22/18 Q1017 NOSIG

TAF TAF LFML
Valide du 23 à 21h jusqu'au 25 à 03h UTC


232000Z 2321/2503 VRB05KT CAVOK
TEMPO 2403/2405 5000
BECMG 2407/2410 18010KT SHRA
PROB40
TEMPO 2407/2412 VRB10G25KT 4000 TSRA SCT015 BKN040CB
BECMG 2416/2418 VRB05KT TX29/2412Z TN20/2403Z
ATIS : +33 4 42 31 15 15
Pas de NOTAMs connus pour ce terrain.



MET'MAP, la Météo Aéronautique d'un coup d'oeil ! - Copyright ORBIFLY Décembre 2007 - Disclaimer

ORBIFLY MET'MAP TEAM :

Programmation & Développement : Alexandra Zaïnal
Conception & Développement : Baudouin d'Aumeries
Co-Programmation & Développement : Marc-Olivier Méhu
Soutien technique & logistique : Manuel Goepfert

Contact : metmap@orbifly.com




SOURCES & CREDITS :

   NOAA